createdAt,value
2023-04-10T00:11:08.517Z,8.1
2023-04-10T00:26:17.832Z,7.9
2023-04-10T00:41:27.505Z,7.7
2023-04-10T00:56:37.410Z,7.6
2023-04-10T01:11:47.084Z,7.5
2023-04-10T01:26:55.929Z,7.3
2023-04-10T01:42:05.224Z,7.2
2023-04-10T01:57:15.062Z,7.1
2023-04-10T02:12:24.617Z,7
2023-04-10T02:27:33.911Z,7
2023-04-10T02:42:43.753Z,7.1
2023-04-10T02:57:53.284Z,7
2023-04-10T03:13:02.603Z,6.9
2023-04-10T03:28:11.608Z,6.8
2023-04-10T03:43:21.407Z,6.8
2023-04-10T03:58:30.796Z,6.7
2023-04-10T04:13:40.726Z,6.8
2023-04-10T04:28:50.806Z,6.9
2023-04-10T04:44:00.297Z,7
2023-04-10T04:59:09.852Z,7.2
2023-04-10T05:14:18.831Z,7.3
2023-04-10T05:29:28.822Z,7.5
2023-04-10T05:44:38.304Z,7.7
2023-04-10T05:59:48.176Z,7.9
2023-04-10T06:14:57.685Z,8
2023-04-10T06:30:07.288Z,8.2
2023-04-10T06:45:17.372Z,8.4
2023-04-10T07:00:27.185Z,8.7
2023-04-10T07:15:37.305Z,9
2023-04-10T07:30:47.567Z,9.4
2023-04-10T07:45:58.086Z,9.8
2023-04-10T08:01:08.341Z,10.1
2023-04-10T08:16:18.258Z,10.5
2023-04-10T08:31:28.611Z,10.9
2023-04-10T08:46:39.512Z,11.3
2023-04-10T09:01:50.187Z,11.8
2023-04-10T09:17:00.713Z,12.2
2023-04-10T09:32:10.331Z,12.4
2023-04-10T09:47:20.969Z,12.7
2023-04-10T10:02:32.219Z,13.2
2023-04-10T10:17:43.404Z,13.8
2023-04-10T10:32:53.780Z,13.8
2023-04-10T10:48:04.113Z,14.2
2023-04-10T11:03:14.860Z,14.6
2023-04-10T11:18:25.219Z,15
2023-04-10T11:33:35.326Z,15.6
2023-04-10T11:48:45.141Z,16.1
2023-04-10T12:03:55.487Z,16.8
2023-04-10T12:19:08.390Z,18
2023-04-10T12:34:18.189Z,18.1
2023-04-10T12:49:27.602Z,18.2
2023-04-10T13:04:36.914Z,17.8
2023-04-10T13:19:47.205Z,17.8
2023-04-10T13:34:56.864Z,18.3
2023-04-10T13:50:06.626Z,18.8
2023-04-10T14:05:16.252Z,19
2023-04-10T14:20:25.962Z,18.8
2023-04-10T14:35:34.949Z,18.5
2023-04-10T14:50:45.828Z,19.9
2023-04-10T15:05:55.540Z,19.9
2023-04-10T15:21:05.742Z,20.8
2023-04-10T15:36:17.385Z,23.4
2023-04-10T15:51:30.265Z,26
2023-04-10T16:06:38.393Z,22.6
2023-04-10T16:21:47.599Z,19.9
2023-04-10T16:36:55.936Z,18.7
2023-04-10T16:52:05.615Z,17.9
2023-04-10T17:07:14.768Z,17.4
2023-04-10T17:22:24.223Z,17
2023-04-10T17:37:34.128Z,16.7
2023-04-10T17:52:43.430Z,16.5
2023-04-10T18:07:53.334Z,16.2
2023-04-10T18:23:04.361Z,16
2023-04-10T18:38:13.949Z,15.8
2023-04-10T18:53:23.721Z,15.7
2023-04-10T19:08:32.954Z,15.5
2023-04-10T19:23:42.256Z,15.4
2023-04-10T19:38:52.895Z,15.3
2023-04-10T19:54:03.128Z,15.3
2023-04-10T20:09:13.010Z,15.2
2023-04-10T20:24:22.656Z,15.2
2023-04-10T20:39:32.243Z,15.1
2023-04-10T20:54:41.402Z,15
2023-04-10T21:09:51.174Z,14.9
2023-04-10T21:25:01.203Z,15
2023-04-10T21:40:10.750Z,14.6
2023-04-10T21:55:19.784Z,13.5
2023-04-10T22:10:28.584Z,12.5
2023-04-10T22:25:38.694Z,12.2
2023-04-10T22:40:48.438Z,12.1
2023-04-10T22:55:57.797Z,11.9
2023-04-10T23:11:07.969Z,11.6
2023-04-10T23:26:17.594Z,11.4
2023-04-10T23:41:27.752Z,11.2
2023-04-10T23:56:37.565Z,11.1
